createdAt,value
2018-09-21T00:01:06.538Z,21.07
2018-09-21T00:02:06.494Z,21.06
2018-09-21T00:04:20.801Z,21.07
2018-09-21T00:04:59.774Z,21.07
2018-09-21T00:06:53.113Z,21.06
2018-09-21T00:07:53.060Z,21.03
2018-09-21T00:09:46.385Z,21.06
2018-09-21T00:10:46.349Z,21.06
2018-09-21T00:12:39.676Z,21.09
2018-09-21T00:13:39.626Z,21.02
2018-09-21T00:15:32.937Z,21.02
2018-09-21T00:16:32.910Z,20.99
2018-09-21T00:18:26.231Z,21.00
2018-09-21T00:19:26.191Z,21.02
2018-09-21T00:21:19.506Z,21.02
2018-09-21T00:22:19.479Z,20.97
2018-09-21T00:24:12.802Z,21.00
2018-09-21T00:25:12.761Z,20.92
2018-09-21T00:27:06.077Z,20.99
2018-09-21T00:28:06.031Z,20.92
2018-09-21T00:29:59.347Z,20.93
2018-09-21T00:30:59.320Z,20.93
2018-09-21T00:32:52.635Z,20.99
2018-09-21T00:33:52.600Z,20.99
2018-09-21T00:35:45.907Z,21.00
2018-09-21T00:36:45.875Z,21.00
2018-09-21T00:38:39.205Z,20.99
2018-09-21T00:39:39.157Z,21.00
2018-09-21T00:41:32.481Z,21.00
2018-09-21T00:42:32.445Z,20.90
2018-09-21T00:44:25.762Z,20.90
2018-09-21T00:45:25.731Z,21.03
2018-09-21T00:47:19.052Z,21.02
2018-09-21T00:48:19.004Z,20.92
2018-09-21T00:50:12.323Z,20.97
2018-09-21T00:51:12.286Z,20.93
2018-09-21T00:53:05.618Z,20.95
2018-09-21T00:54:05.571Z,20.97
2018-09-21T00:55:58.876Z,20.96
2018-09-21T00:56:58.841Z,20.81
2018-09-21T00:58:52.167Z,20.85
2018-09-21T00:59:52.128Z,20.87
2018-09-21T01:01:45.453Z,20.82
2018-09-21T01:02:45.420Z,20.75
2018-09-21T01:04:38.736Z,20.92
2018-09-21T01:05:38.693Z,20.88
2018-09-21T01:07:32.001Z,20.90
2018-09-21T01:08:31.973Z,20.93
2018-09-21T01:10:25.307Z,20.80
2018-09-21T01:11:25.254Z,20.85
2018-09-21T01:13:18.566Z,20.95
2018-09-21T01:14:18.541Z,20.92
2018-09-21T01:16:11.858Z,20.78
2018-09-21T01:17:11.811Z,20.80
2018-09-21T01:19:05.134Z,20.78
2018-09-21T01:20:05.097Z,20.77
2018-09-21T01:21:58.422Z,20.93
2018-09-21T01:22:58.387Z,20.80
2018-09-21T01:24:51.698Z,20.82
2018-09-21T01:25:51.667Z,20.80
2018-09-21T01:27:44.963Z,20.93
2018-09-21T01:28:44.952Z,20.75
2018-09-21T01:30:38.273Z,20.80
2018-09-21T01:31:38.219Z,20.77
2018-09-21T01:33:31.546Z,20.77
2018-09-21T01:34:31.505Z,20.69
2018-09-21T01:36:24.827Z,20.74
2018-09-21T01:37:24.790Z,20.74
2018-09-21T01:39:18.095Z,20.80
2018-09-21T01:40:18.064Z,20.67
2018-09-21T01:42:11.391Z,20.81
2018-09-21T01:43:11.344Z,20.75
2018-09-21T01:45:04.667Z,20.75
2018-09-21T01:46:04.624Z,20.72
2018-09-21T01:47:57.938Z,20.77
2018-09-21T01:48:57.903Z,20.66
2018-09-21T01:50:51.233Z,20.75
2018-09-21T01:51:51.192Z,20.70
2018-09-21T01:53:44.524Z,20.67
2018-09-21T01:54:44.469Z,20.63
2018-09-21T01:56:37.794Z,20.69
2018-09-21T01:57:37.755Z,20.65
2018-09-21T01:59:31.069Z,20.70
2018-09-21T02:00:31.025Z,20.62
2018-09-21T02:02:24.345Z,20.63
2018-09-21T02:03:24.309Z,20.62
2018-09-21T02:05:17.633Z,20.59
2018-09-21T02:06:17.603Z,20.67
2018-09-21T02:08:10.929Z,20.60
2018-09-21T02:09:10.884Z,20.67
2018-09-21T02:11:04.200Z,20.63
2018-09-21T02:12:04.155Z,20.69
2018-09-21T02:13:57.473Z,20.67
2018-09-21T02:14:57.436Z,20.66
2018-09-21T02:16:50.756Z,20.59
2018-09-21T02:17:50.721Z,20.70
2018-09-21T02:19:44.039Z,20.60
2018-09-21T02:20:44.009Z,20.63
2018-09-21T02:22:37.345Z,20.63
2018-09-21T02:23:37.279Z,20.65
2018-09-21T02:25:30.606Z,20.60
2018-09-21T02:26:30.556Z,20.58
2018-09-21T02:28:23.889Z,20.59
2018-09-21T02:29:23.839Z,20.72
2018-09-21T02:31:17.175Z,20.63
2018-09-21T02:32:17.126Z,20.63
2018-09-21T02:34:10.465Z,20.67
2018-09-21T02:35:10.417Z,20.66
2018-09-21T02:37:03.767Z,20.70
2018-09-21T02:38:03.720Z,20.70
2018-09-21T02:39:57.045Z,20.75
2018-09-21T02:40:57.011Z,20.81
2018-09-21T02:42:50.335Z,20.74
2018-09-21T02:43:50.294Z,20.78
2018-09-21T02:45:43.600Z,20.78
2018-09-21T02:46:43.571Z,20.77
2018-09-21T02:48:36.958Z,20.88
2018-09-21T02:49:36.845Z,20.93
2018-09-21T02:51:30.165Z,20.99
2018-09-21T02:52:30.131Z,21.00
2018-09-21T02:54:23.453Z,21.00
2018-09-21T02:55:23.403Z,21.03
2018-09-21T02:57:16.740Z,21.02
2018-09-21T02:58:16.697Z,21.02
2018-09-21T03:00:10.035Z,21.21
2018-09-21T03:01:09.972Z,21.25
2018-09-21T03:03:03.301Z,21.33
2018-09-21T03:04:03.246Z,21.50
2018-09-21T03:05:56.563Z,21.60
2018-09-21T03:06:56.533Z,21.64
2018-09-21T03:08:49.859Z,21.82
2018-09-21T03:09:49.809Z,21.91
2018-09-21T03:11:43.116Z,21.92
2018-09-21T03:12:43.090Z,21.98
2018-09-21T03:14:36.419Z,21.95
2018-09-21T03:15:36.370Z,22.07
2018-09-21T03:17:29.716Z,22.07
2018-09-21T03:18:29.651Z,22.15
2018-09-21T03:20:22.964Z,22.14
2018-09-21T03:21:22.931Z,22.23
2018-09-21T03:23:16.257Z,22.41
2018-09-21T03:24:16.218Z,22.41
2018-09-21T03:26:09.527Z,22.55
2018-09-21T03:27:09.510Z,22.55
2018-09-21T03:29:02.830Z,22.59
2018-09-21T03:30:02.789Z,22.51
2018-09-21T03:31:56.089Z,22.53
2018-09-21T03:32:56.057Z,22.48
2018-09-21T03:34:49.432Z,22.57
2018-09-21T03:35:49.343Z,22.65
2018-09-21T03:37:42.683Z,22.66
2018-09-21T03:38:42.628Z,22.68
2018-09-21T03:40:35.950Z,22.78
2018-09-21T03:41:35.923Z,22.84
2018-09-21T03:43:29.279Z,22.87
2018-09-21T03:44:29.204Z,22.83
2018-09-21T03:46:22.514Z,22.83
2018-09-21T03:47:22.489Z,22.70
2018-09-21T03:49:15.837Z,22.83
2018-09-21T03:50:15.768Z,22.80
2018-09-21T03:52:09.101Z,22.87
2018-09-21T03:53:09.074Z,22.90
2018-09-21T03:55:02.404Z,22.91
2018-09-21T03:56:02.349Z,22.87
2018-09-21T03:57:55.674Z,22.93
2018-09-21T03:58:55.640Z,22.91
2018-09-21T04:00:48.966Z,22.94
2018-09-21T04:01:48.926Z,22.91
2018-09-21T04:03:42.254Z,23.00
2018-09-21T04:04:42.218Z,23.08
2018-09-21T04:06:35.542Z,23.00
2018-09-21T04:07:35.505Z,22.98
2018-09-21T04:09:28.855Z,22.96
2018-09-21T04:10:28.843Z,22.94
2018-09-21T04:12:22.110Z,23.08
2018-09-21T04:13:22.065Z,23.00
2018-09-21T04:15:15.409Z,23.00
2018-09-21T04:16:15.360Z,23.00
2018-09-21T04:18:08.697Z,22.99
2018-09-21T04:19:08.674Z,23.02
2018-09-21T04:21:01.985Z,22.98
2018-09-21T04:22:01.937Z,23.00
2018-09-21T04:23:55.256Z,23.18
2018-09-21T04:24:55.222Z,23.13
2018-09-21T04:26:48.549Z,23.15
2018-09-21T04:27:48.524Z,23.09
2018-09-21T04:29:41.834Z,23.09
2018-09-21T04:30:41.796Z,23.20
2018-09-21T04:32:35.135Z,23.13
2018-09-21T04:33:35.081Z,23.05
2018-09-21T04:35:28.405Z,23.10
2018-09-21T04:36:28.370Z,23.05
2018-09-21T04:38:21.706Z,22.96
2018-09-21T04:39:21.669Z,23.05
2018-09-21T04:41:14.991Z,23.09
2018-09-21T04:42:14.941Z,23.00
2018-09-21T04:44:08.285Z,23.13
2018-09-21T04:45:08.227Z,23.06
2018-09-21T04:47:01.570Z,23.02
2018-09-21T04:48:01.506Z,22.98
2018-09-21T04:49:54.864Z,22.96
2018-09-21T04:50:54.837Z,22.93
2018-09-21T04:52:48.155Z,23.00
2018-09-21T04:53:48.107Z,23.03
2018-09-21T04:55:41.435Z,22.94
2018-09-21T04:56:41.401Z,23.02
2018-09-21T04:58:34.747Z,22.91
2018-09-21T04:59:34.690Z,22.91
2018-09-21T05:01:28.026Z,22.90
2018-09-21T05:02:27.975Z,22.87
2018-09-21T05:04:21.289Z,22.83
2018-09-21T05:05:21.251Z,22.90
2018-09-21T05:07:14.575Z,22.84
2018-09-21T05:08:14.541Z,22.88
2018-09-21T05:10:07.851Z,22.83
2018-09-21T05:11:07.821Z,22.78
2018-09-21T05:13:01.141Z,22.78
2018-09-21T05:14:01.102Z,22.73
2018-09-21T05:15:54.436Z,22.78
2018-09-21T05:16:54.398Z,22.72
2018-09-21T05:18:47.762Z,22.70
2018-09-21T05:19:47.757Z,22.73
2018-09-21T05:21:42.035Z,22.68
2018-09-21T05:22:42.008Z,22.69
2018-09-21T05:24:35.329Z,22.60
2018-09-21T05:25:35.296Z,22.60
2018-09-21T05:27:28.634Z,22.54
2018-09-21T05:28:28.569Z,22.48
2018-09-21T05:30:21.882Z,22.43
2018-09-21T05:31:21.853Z,22.45
2018-09-21T05:33:15.188Z,22.38
2018-09-21T05:34:15.150Z,22.41
2018-09-21T05:36:08.460Z,22.41
2018-09-21T05:37:08.422Z,22.30
2018-09-21T05:39:01.777Z,22.20
2018-09-21T05:40:01.724Z,22.29
2018-09-21T05:41:55.033Z,22.35
2018-09-21T05:42:55.002Z,22.35
2018-09-21T05:44:48.341Z,22.25
2018-09-21T05:45:48.291Z,22.23
2018-09-21T05:47:41.615Z,22.22
2018-09-21T05:48:41.574Z,22.26
2018-09-21T05:50:34.903Z,22.39
2018-09-21T05:51:34.872Z,22.29
2018-09-21T05:53:28.194Z,22.28
2018-09-21T05:54:28.149Z,22.26
2018-09-21T05:56:21.469Z,22.32
2018-09-21T05:57:21.462Z,22.36
2018-09-21T05:59:14.779Z,22.30
2018-09-21T06:00:14.720Z,22.28
2018-09-21T06:02:08.103Z,22.36
2018-09-21T06:03:08.015Z,22.33
2018-09-21T06:05:01.329Z,22.35
2018-09-21T06:06:01.289Z,22.35
2018-09-21T06:07:54.639Z,22.38
2018-09-21T06:08:54.565Z,22.39
2018-09-21T06:10:47.891Z,22.45
2018-09-21T06:11:47.855Z,22.47
2018-09-21T06:13:41.272Z,22.47
2018-09-21T06:14:41.140Z,22.45
2018-09-21T06:16:34.471Z,22.50
2018-09-21T06:17:34.428Z,22.53
2018-09-21T06:19:27.843Z,22.50
2018-09-21T06:20:27.721Z,22.51
2018-09-21T06:22:21.040Z,22.54
2018-09-21T06:23:21.006Z,22.62
2018-09-21T06:25:14.328Z,22.55
2018-09-21T06:26:14.296Z,22.47
2018-09-21T06:28:07.596Z,22.50
2018-09-21T06:29:07.571Z,22.54
2018-09-21T06:31:00.903Z,22.54
2018-09-21T06:32:00.962Z,22.57
2018-09-21T06:33:54.199Z,22.48
2018-09-21T06:34:54.149Z,22.53
2018-09-21T06:36:47.460Z,22.50
2018-09-21T06:37:47.434Z,22.48
2018-09-21T06:39:40.760Z,22.51
2018-09-21T06:40:40.723Z,22.54
2018-09-21T06:42:34.076Z,22.48
2018-09-21T06:43:33.997Z,22.48
2018-09-21T06:45:27.334Z,22.50
2018-09-21T06:46:27.281Z,22.53
2018-09-21T06:48:20.606Z,22.48
2018-09-21T06:49:20.554Z,22.54
2018-09-21T06:51:13.890Z,22.53
2018-09-21T06:52:13.848Z,22.60
2018-09-21T06:54:07.162Z,22.50
2018-09-21T06:55:07.129Z,22.51
2018-09-21T06:57:00.466Z,22.50
2018-09-21T06:58:00.430Z,22.54
2018-09-21T06:59:53.762Z,22.55
2018-09-21T07:00:53.721Z,22.50
2018-09-21T07:02:47.040Z,22.50
2018-09-21T07:03:46.996Z,22.53
2018-09-21T07:05:40.353Z,22.51
2018-09-21T07:06:40.283Z,22.53
2018-09-21T07:08:33.625Z,22.53
2018-09-21T07:09:33.585Z,22.53
2018-09-21T07:11:26.877Z,22.53
2018-09-21T07:12:26.850Z,22.54
2018-09-21T07:14:20.180Z,22.53
2018-09-21T07:15:20.126Z,22.47
2018-09-21T07:17:13.458Z,22.55
2018-09-21T07:18:13.412Z,22.51
2018-09-21T07:20:06.717Z,22.59
2018-09-21T07:21:06.701Z,22.59
2018-09-21T07:23:00.051Z,22.60
2018-09-21T07:23:59.972Z,22.57
2018-09-21T07:25:53.311Z,22.59
2018-09-21T07:26:53.262Z,22.57
2018-09-21T07:28:46.573Z,22.55
2018-09-21T07:29:46.548Z,22.55
2018-09-21T07:31:39.879Z,22.55
2018-09-21T07:32:39.823Z,22.47
2018-09-21T07:34:33.147Z,22.62
2018-09-21T07:35:33.128Z,22.55
2018-09-21T07:37:26.504Z,22.54
2018-09-21T07:38:26.393Z,22.60
2018-09-21T07:40:19.708Z,22.53
2018-09-21T07:41:19.670Z,22.51
2018-09-21T07:43:13.048Z,22.50
2018-09-21T07:44:12.964Z,22.53
2018-09-21T07:46:06.283Z,22.50
2018-09-21T07:47:06.248Z,22.55
2018-09-21T07:48:59.606Z,22.50
2018-09-21T07:49:59.518Z,22.51
2018-09-21T07:51:52.850Z,22.53
2018-09-21T07:52:52.810Z,22.50
2018-09-21T07:54:46.117Z,22.53
2018-09-21T07:55:46.092Z,22.53
2018-09-21T07:57:39.423Z,22.51
2018-09-21T07:58:39.387Z,22.53
2018-09-21T08:00:32.698Z,22.47
2018-09-21T08:01:32.665Z,22.41
2018-09-21T08:03:25.998Z,22.43
2018-09-21T08:04:25.953Z,22.43
2018-09-21T08:06:19.288Z,22.44
2018-09-21T08:07:19.304Z,22.51
2018-09-21T08:09:12.570Z,22.43
2018-09-21T08:10:12.519Z,22.48
2018-09-21T08:12:05.860Z,22.43
2018-09-21T08:13:05.814Z,22.54
2018-09-21T08:14:59.129Z,22.51
2018-09-21T08:15:59.099Z,22.55
2018-09-21T08:17:52.429Z,22.51
2018-09-21T08:18:52.384Z,22.51
2018-09-21T08:20:45.700Z,22.57
2018-09-21T08:21:45.659Z,22.65
2018-09-21T08:23:38.995Z,22.51
2018-09-21T08:24:38.935Z,22.66
2018-09-21T08:26:32.291Z,22.60
2018-09-21T08:27:32.226Z,22.63
2018-09-21T08:29:25.556Z,22.72
2018-09-21T08:30:25.508Z,22.68
2018-09-21T08:32:18.840Z,22.63
2018-09-21T08:33:18.874Z,22.66
2018-09-21T08:35:12.101Z,22.59
2018-09-21T08:36:12.081Z,22.57
2018-09-21T08:38:05.407Z,22.36
2018-09-21T08:39:05.363Z,22.41
2018-09-21T08:40:58.678Z,22.10
2018-09-21T08:41:58.640Z,22.14
2018-09-21T08:43:51.971Z,22.00
2018-09-21T08:44:51.918Z,21.98
2018-09-21T08:46:45.252Z,21.72
2018-09-21T08:47:45.208Z,21.57
2018-09-21T08:49:38.545Z,21.32
2018-09-21T08:50:38.502Z,20.66
2018-09-21T08:52:31.808Z,19.55
2018-09-21T08:53:31.785Z,19.04
2018-09-21T08:55:25.113Z,18.60
2018-09-21T08:56:25.064Z,18.50
2018-09-21T08:58:18.402Z,18.16
2018-09-21T08:59:18.350Z,18.13
2018-09-21T09:01:11.664Z,17.83
2018-09-21T09:02:11.618Z,17.92
2018-09-21T09:04:04.943Z,17.54
2018-09-21T09:05:04.897Z,17.48
2018-09-21T09:06:58.201Z,17.06
2018-09-21T09:07:58.161Z,16.94
2018-09-21T09:09:51.478Z,16.68
2018-09-21T09:10:51.433Z,16.51
2018-09-21T09:12:44.743Z,16.26
2018-09-21T09:13:44.702Z,16.12
2018-09-21T09:15:38.034Z,15.82
2018-09-21T09:16:37.981Z,15.86
2018-09-21T09:18:31.288Z,15.95
2018-09-21T09:19:31.247Z,15.88
2018-09-21T09:21:24.568Z,15.76
2018-09-21T09:22:24.521Z,15.84
2018-09-21T09:24:17.828Z,15.94
2018-09-21T09:25:17.794Z,15.90
2018-09-21T09:27:11.108Z,15.59
2018-09-21T09:28:11.065Z,15.59
2018-09-21T09:30:04.448Z,15.44
2018-09-21T09:31:04.337Z,15.49
2018-09-21T09:32:57.649Z,15.40
2018-09-21T09:33:57.602Z,15.28
2018-09-21T09:35:50.907Z,15.29
2018-09-21T09:36:50.889Z,15.37
2018-09-21T09:38:44.170Z,15.24
2018-09-21T09:39:44.138Z,15.18
2018-09-21T09:41:37.451Z,15.35
2018-09-21T09:42:37.486Z,15.31
2018-09-21T09:44:30.732Z,15.27
2018-09-21T09:45:30.677Z,15.25
2018-09-21T09:47:23.975Z,15.31
2018-09-21T09:48:23.996Z,15.17
2018-09-21T09:50:17.265Z,15.25
2018-09-21T09:51:17.231Z,15.27
2018-09-21T09:53:10.545Z,15.22
2018-09-21T09:54:10.484Z,15.24
2018-09-21T09:56:03.810Z,15.14
2018-09-21T09:57:03.761Z,15.06
2018-09-21T09:58:57.069Z,15.04
2018-09-21T09:59:57.045Z,15.04
2018-09-21T10:01:50.365Z,15.03
2018-09-21T10:02:50.330Z,15.15
2018-09-21T10:04:43.611Z,15.07
2018-09-21T10:05:43.594Z,15.00
2018-09-21T10:07:36.897Z,15.02
2018-09-21T10:08:36.845Z,15.09
2018-09-21T10:10:30.211Z,15.06
2018-09-21T10:11:30.113Z,15.00
2018-09-21T10:13:23.443Z,15.06
2018-09-21T10:14:23.393Z,15.03
2018-09-21T10:16:16.756Z,15.03
2018-09-21T10:17:16.666Z,15.04
2018-09-21T10:19:09.961Z,14.86
2018-09-21T10:20:09.934Z,14.85
2018-09-21T10:22:02.746Z,14.99
2018-09-21T10:23:02.704Z,15.03
2018-09-21T10:24:56.002Z,15.06
2018-09-21T10:25:55.958Z,15.06
2018-09-21T10:27:49.360Z,15.07
2018-09-21T10:28:49.390Z,15.06
2018-09-21T10:30:42.521Z,15.07
2018-09-21T10:31:42.498Z,15.22
2018-09-21T10:33:36.020Z,15.15
2018-09-21T10:34:35.859Z,15.07
2018-09-21T10:36:29.158Z,15.17
2018-09-21T10:37:29.046Z,15.19
2018-09-21T10:39:22.545Z,15.22
2018-09-21T10:40:22.356Z,15.18
2018-09-21T10:42:15.636Z,15.35
2018-09-21T10:43:15.665Z,15.33
2018-09-21T10:45:08.887Z,15.29
2018-09-21T10:46:08.857Z,15.43
2018-09-21T10:48:02.175Z,15.46
2018-09-21T10:49:02.117Z,15.43
2018-09-21T10:50:55.446Z,15.61
2018-09-21T10:51:55.395Z,15.64
2018-09-21T10:53:48.231Z,15.58
2018-09-21T10:54:48.161Z,15.72
2018-09-21T10:56:41.467Z,15.86
2018-09-21T10:57:41.431Z,15.92
2018-09-21T10:59:34.751Z,15.98
2018-09-21T11:00:34.744Z,15.98
2018-09-21T11:02:28.002Z,16.05
2018-09-21T11:03:27.993Z,16.10
2018-09-21T11:05:21.292Z,16.04
2018-09-21T11:06:21.248Z,16.15
2018-09-21T11:08:14.591Z,16.20
2018-09-21T11:09:14.521Z,16.32
2018-09-21T11:11:07.828Z,16.39
2018-09-21T11:12:07.800Z,16.46
2018-09-21T11:14:01.116Z,16.61
2018-09-21T11:15:01.078Z,16.64
2018-09-21T11:16:54.370Z,16.76
2018-09-21T11:17:54.336Z,16.79
2018-09-21T11:19:47.653Z,16.87
2018-09-21T11:20:47.610Z,16.99
2018-09-21T11:22:40.924Z,17.02
2018-09-21T11:23:40.882Z,17.05
2018-09-21T11:25:34.193Z,17.20
2018-09-21T11:26:34.147Z,17.24
2018-09-21T11:28:27.474Z,17.38
2018-09-21T11:29:27.428Z,17.46
2018-09-21T11:31:20.769Z,17.82
2018-09-21T11:32:20.704Z,18.13
2018-09-21T11:34:14.019Z,18.83
2018-09-21T11:35:13.980Z,19.22
2018-09-21T11:37:07.304Z,19.82
2018-09-21T11:38:07.259Z,20.04
2018-09-21T11:40:00.621Z,20.43
2018-09-21T11:41:00.595Z,20.32
2018-09-21T11:42:53.834Z,20.02
2018-09-21T11:43:53.816Z,20.02
2018-09-21T11:45:47.161Z,20.07
2018-09-21T11:46:47.161Z,20.22
2018-09-21T11:48:40.418Z,20.16
2018-09-21T11:49:40.382Z,19.99
2018-09-21T11:51:33.708Z,19.84
2018-09-21T11:52:33.668Z,19.76
2018-09-21T11:54:26.973Z,19.22
2018-09-21T11:55:26.944Z,19.24
2018-09-21T11:57:20.262Z,19.12
2018-09-21T11:58:20.221Z,18.89
2018-09-21T12:00:13.538Z,18.77
2018-09-21T12:01:13.499Z,18.68
2018-09-21T12:03:06.824Z,18.55
2018-09-21T12:04:06.774Z,18.47
2018-09-21T12:06:00.107Z,18.18
2018-09-21T12:07:00.056Z,17.83
2018-09-21T12:08:53.385Z,17.76
2018-09-21T12:09:53.325Z,17.83
2018-09-21T12:11:46.643Z,17.82
2018-09-21T12:12:46.604Z,17.83
2018-09-21T12:14:39.909Z,17.83
2018-09-21T12:15:39.885Z,17.85
2018-09-21T12:17:33.205Z,17.85
2018-09-21T12:18:33.145Z,17.82
2018-09-21T12:20:26.464Z,17.87
2018-09-21T12:21:26.424Z,17.76
2018-09-21T12:23:19.764Z,17.57
2018-09-21T12:24:19.713Z,17.60
2018-09-21T12:26:13.038Z,17.51
2018-09-21T12:27:12.996Z,17.48
2018-09-21T12:29:06.321Z,17.44
2018-09-21T12:30:06.271Z,17.42
2018-09-21T12:31:59.598Z,17.48
2018-09-21T12:32:59.546Z,17.63
2018-09-21T12:34:52.850Z,17.60
2018-09-21T12:35:52.877Z,17.56
2018-09-21T12:37:46.176Z,17.54
2018-09-21T12:38:46.149Z,17.44
2018-09-21T12:40:39.415Z,17.42
2018-09-21T12:41:39.375Z,17.33
2018-09-21T12:43:32.708Z,17.34
2018-09-21T12:44:32.769Z,17.51
2018-09-21T12:46:25.959Z,17.46
2018-09-21T12:47:25.933Z,17.48
2018-09-21T12:49:19.258Z,17.36
2018-09-21T12:50:19.270Z,17.45
2018-09-21T12:52:12.515Z,17.48
2018-09-21T12:53:12.468Z,17.42
2018-09-21T12:55:05.803Z,17.46
2018-09-21T12:56:05.749Z,17.46
2018-09-21T12:57:59.144Z,17.45
2018-09-21T12:58:59.028Z,17.38
2018-09-21T13:00:52.359Z,17.44
2018-09-21T13:01:52.323Z,17.59
2018-09-21T13:03:45.632Z,17.45
2018-09-21T13:04:45.593Z,17.57
2018-09-21T13:06:38.926Z,17.45
2018-09-21T13:07:38.872Z,17.49
2018-09-21T13:09:32.197Z,17.42
2018-09-21T13:10:32.143Z,17.54
2018-09-21T13:12:25.459Z,17.49
2018-09-21T13:13:25.423Z,17.64
2018-09-21T13:15:18.739Z,17.52
2018-09-21T13:16:18.694Z,17.67
2018-09-21T13:18:11.996Z,17.36
2018-09-21T13:19:11.971Z,17.34
2018-09-21T13:21:05.283Z,17.52
2018-09-21T13:22:05.244Z,17.33
2018-09-21T13:23:58.577Z,17.41
2018-09-21T13:24:58.551Z,17.46
2018-09-21T13:26:51.865Z,17.42
2018-09-21T13:27:51.801Z,17.51
2018-09-21T13:29:45.118Z,17.45
2018-09-21T13:30:45.070Z,17.34
2018-09-21T13:32:38.374Z,17.42
2018-09-21T13:33:38.359Z,17.30
2018-09-21T13:35:31.673Z,17.31
2018-09-21T13:36:31.619Z,17.23
2018-09-21T13:38:24.917Z,17.38
2018-09-21T13:39:24.887Z,17.38
2018-09-21T13:41:18.219Z,17.33
2018-09-21T13:42:18.184Z,17.38
2018-09-21T13:44:11.483Z,17.41
2018-09-21T13:45:11.443Z,17.39
2018-09-21T13:47:04.808Z,17.30
2018-09-21T13:48:04.724Z,17.26
2018-09-21T13:49:58.033Z,17.34
2018-09-21T13:50:57.992Z,17.36
2018-09-21T13:52:51.327Z,17.24
2018-09-21T13:53:51.264Z,17.33
2018-09-21T13:55:44.614Z,17.34
2018-09-21T13:56:44.558Z,17.38
2018-09-21T13:58:37.888Z,17.31
2018-09-21T13:59:37.840Z,17.31
2018-09-21T14:01:31.163Z,17.22
2018-09-21T14:02:31.119Z,17.24
2018-09-21T14:04:24.434Z,17.39
2018-09-21T14:05:24.407Z,17.41
2018-09-21T14:07:17.709Z,17.46
2018-09-21T14:08:17.659Z,17.33
2018-09-21T14:10:10.966Z,17.34
2018-09-21T14:11:10.932Z,17.26
2018-09-21T14:13:04.244Z,17.22
2018-09-21T14:14:04.199Z,17.20
2018-09-21T14:15:57.521Z,17.36
2018-09-21T14:16:57.480Z,17.30
2018-09-21T14:18:50.791Z,17.24
2018-09-21T14:19:50.749Z,17.38
2018-09-21T14:21:44.070Z,17.30
2018-09-21T14:22:44.045Z,17.39
2018-09-21T14:24:37.350Z,17.45
2018-09-21T14:25:37.302Z,17.54
2018-09-21T14:27:30.617Z,17.42
2018-09-21T14:28:30.577Z,17.51
2018-09-21T14:30:23.875Z,17.56
2018-09-21T14:31:23.854Z,17.42
2018-09-21T14:33:18.783Z,17.31
2018-09-21T14:34:17.127Z,17.38
2018-09-21T14:36:10.452Z,17.51
2018-09-21T14:37:10.410Z,17.60
2018-09-21T14:39:03.730Z,17.80
2018-09-21T14:40:03.693Z,17.74
2018-09-21T14:41:56.985Z,17.98
2018-09-21T14:42:56.966Z,17.85
2018-09-21T14:44:50.287Z,18.11
2018-09-21T14:45:50.246Z,18.34
2018-09-21T14:47:43.592Z,18.52
2018-09-21T14:48:43.520Z,18.73
2018-09-21T14:50:36.910Z,18.96
2018-09-21T14:51:36.795Z,18.89
2018-09-21T14:53:30.132Z,18.60
2018-09-21T14:54:30.079Z,18.59
2018-09-21T14:56:23.391Z,18.74
2018-09-21T14:57:23.357Z,18.77
2018-09-21T14:59:16.668Z,18.96
2018-09-21T15:00:16.633Z,18.93
2018-09-21T15:02:09.946Z,18.88
2018-09-21T15:03:09.907Z,19.08
2018-09-21T15:05:03.237Z,19.18
2018-09-21T15:06:03.198Z,19.18
2018-09-21T15:07:56.511Z,19.08
2018-09-21T15:08:56.481Z,19.14
2018-09-21T15:10:49.793Z,19.12
2018-09-21T15:11:49.750Z,19.27
2018-09-21T15:13:43.064Z,19.31
2018-09-21T15:14:43.033Z,19.24
2018-09-21T15:16:36.395Z,19.27
2018-09-21T15:17:36.312Z,19.29
2018-09-21T15:19:29.632Z,18.89
2018-09-21T15:20:29.607Z,19.15
2018-09-21T15:22:22.984Z,19.24
2018-09-21T15:23:22.873Z,19.21
2018-09-21T15:25:16.196Z,19.31
2018-09-21T15:26:16.147Z,19.33
2018-09-21T15:28:09.461Z,19.30
2018-09-21T15:29:09.429Z,19.18
2018-09-21T15:31:02.778Z,19.27
2018-09-21T15:32:02.714Z,19.40
2018-09-21T15:33:56.028Z,19.52
2018-09-21T15:34:55.987Z,19.27
2018-09-21T15:36:49.315Z,19.16
2018-09-21T15:37:49.283Z,19.14
2018-09-21T15:39:42.677Z,19.04
2018-09-21T15:40:42.563Z,19.08
2018-09-21T15:42:35.869Z,19.15
2018-09-21T15:43:35.891Z,19.21
2018-09-21T15:45:29.148Z,19.04
2018-09-21T15:46:29.110Z,19.00
2018-09-21T15:48:22.439Z,18.92
2018-09-21T15:49:22.410Z,19.15
2018-09-21T15:51:15.766Z,19.16
2018-09-21T15:52:15.732Z,19.21
2018-09-21T15:54:09.039Z,19.04
2018-09-21T15:55:09.010Z,19.08
2018-09-21T15:57:02.344Z,19.14
2018-09-21T15:58:02.296Z,19.15
2018-09-21T15:59:55.601Z,18.99
2018-09-21T16:00:55.594Z,18.75
2018-09-21T16:02:48.989Z,18.74
2018-09-21T16:03:48.842Z,18.73
2018-09-21T16:05:42.173Z,18.62
2018-09-21T16:06:42.140Z,18.45
2018-09-21T16:08:35.455Z,18.41
2018-09-21T16:09:35.406Z,18.45
2018-09-21T16:11:28.731Z,18.33
2018-09-21T16:12:28.690Z,18.26
2018-09-21T16:14:22.010Z,18.11
2018-09-21T16:15:21.950Z,18.08
2018-09-21T16:17:15.283Z,18.15
2018-09-21T16:18:15.236Z,18.18
2018-09-21T16:20:09.399Z,18.25
2018-09-21T16:21:09.355Z,18.29
2018-09-21T16:23:02.689Z,18.00
2018-09-21T16:24:02.649Z,18.15
2018-09-21T16:25:55.975Z,17.94
2018-09-21T16:26:55.943Z,17.92
2018-09-21T16:28:49.289Z,18.07
2018-09-21T16:29:49.246Z,18.10
2018-09-21T16:31:42.590Z,18.03
2018-09-21T16:32:42.540Z,17.98
2018-09-21T16:34:35.854Z,17.98
2018-09-21T16:35:35.805Z,17.85
2018-09-21T16:37:29.136Z,17.94
2018-09-21T16:38:29.086Z,18.01
2018-09-21T16:40:22.398Z,17.89
2018-09-21T16:41:22.368Z,17.92
2018-09-21T16:43:16.690Z,17.87
2018-09-21T16:44:16.641Z,17.83
2018-09-21T16:46:10.025Z,17.80
2018-09-21T16:47:09.911Z,17.98
2018-09-21T16:49:03.232Z,17.74
2018-09-21T16:50:03.189Z,17.72
2018-09-21T16:51:56.504Z,17.70
2018-09-21T16:52:56.458Z,17.71
2018-09-21T16:54:49.796Z,17.57
2018-09-21T16:55:49.750Z,17.44
2018-09-21T16:57:43.124Z,17.41
2018-09-21T16:58:43.112Z,17.41
2018-09-21T17:00:36.326Z,17.30
2018-09-21T17:01:36.300Z,17.36
2018-09-21T17:03:29.617Z,17.19
2018-09-21T17:04:29.659Z,17.30
2018-09-21T17:06:22.891Z,17.24
2018-09-21T17:07:22.847Z,17.20
2018-09-21T17:09:16.161Z,17.12
2018-09-21T17:10:16.121Z,17.14
2018-09-21T17:12:09.427Z,17.06
2018-09-21T17:13:09.396Z,17.04
2018-09-21T17:15:02.716Z,16.96
2018-09-21T17:16:02.670Z,17.05
2018-09-21T17:17:55.983Z,17.04
2018-09-21T17:18:55.947Z,16.90
2018-09-21T17:20:49.274Z,16.94
2018-09-21T17:21:49.221Z,16.99
2018-09-21T17:23:42.553Z,16.79
2018-09-21T17:24:42.504Z,16.86
2018-09-21T17:26:35.839Z,16.81
2018-09-21T17:27:35.783Z,16.72
2018-09-21T17:29:29.102Z,16.66
2018-09-21T17:30:29.056Z,16.66
2018-09-21T17:32:22.373Z,16.51
2018-09-21T17:33:22.334Z,16.50
2018-09-21T17:35:15.650Z,16.51
2018-09-21T17:36:15.603Z,16.53
2018-09-21T17:38:08.907Z,16.50
2018-09-21T17:39:08.867Z,16.41
2018-09-21T17:41:02.199Z,16.46
2018-09-21T17:42:02.158Z,16.50
2018-09-21T17:43:55.467Z,16.46
2018-09-21T17:44:55.427Z,16.41
2018-09-21T17:46:48.744Z,16.35
2018-09-21T17:47:48.702Z,16.36
2018-09-21T17:49:41.994Z,16.26
2018-09-21T17:50:41.977Z,16.31
2018-09-21T17:52:35.354Z,16.33
2018-09-21T17:53:35.244Z,16.17
2018-09-21T17:55:28.564Z,16.24
2018-09-21T17:56:28.517Z,16.17
2018-09-21T17:58:21.843Z,16.17
2018-09-21T17:59:21.803Z,16.15
2018-09-21T18:01:15.132Z,16.20
2018-09-21T18:02:15.077Z,16.16
2018-09-21T18:04:08.378Z,16.13
2018-09-21T18:05:08.345Z,16.05
2018-09-21T18:07:01.665Z,16.09
2018-09-21T18:08:01.628Z,16.09
2018-09-21T18:09:54.932Z,16.05
2018-09-21T18:10:54.910Z,16.04
2018-09-21T18:12:48.239Z,15.98
2018-09-21T18:13:48.174Z,15.98
2018-09-21T18:15:41.484Z,15.97
2018-09-21T18:16:41.459Z,16.02
2018-09-21T18:18:34.800Z,15.92
2018-09-21T18:19:34.753Z,15.94
2018-09-21T18:21:28.091Z,15.92
2018-09-21T18:22:28.023Z,15.86
2018-09-21T18:24:21.359Z,15.83
2018-09-21T18:25:21.290Z,15.82
2018-09-21T18:27:14.619Z,15.82
2018-09-21T18:28:14.570Z,15.80
2018-09-21T18:30:07.870Z,15.73
2018-09-21T18:31:07.835Z,15.76
2018-09-21T18:33:01.164Z,15.75
2018-09-21T18:34:01.120Z,15.82
2018-09-21T18:35:54.420Z,15.67